sensor_id;sensor_type;location;lat;lon;timestamp;temperature;humidity
23671;DHT22;12012;51.998;7.614;2023-02-25T00:00:45;3.90;90.40
23671;DHT22;12012;51.998;7.614;2023-02-25T00:03:11;3.90;90.90
23671;DHT22;12012;51.998;7.614;2023-02-25T00:05:40;3.90;90.70
23671;DHT22;12012;51.998;7.614;2023-02-25T00:08:06;3.90;91.00
23671;DHT22;12012;51.998;7.614;2023-02-25T00:10:33;3.90;91.10
23671;DHT22;12012;51.998;7.614;2023-02-25T00:12:59;3.90;91.00
23671;DHT22;12012;51.998;7.614;2023-02-25T00:15:25;3.90;91.10
23671;DHT22;12012;51.998;7.614;2023-02-25T00:17:50;4.00;91.10
23671;DHT22;12012;51.998;7.614;2023-02-25T00:20:17;4.00;91.10
23671;DHT22;12012;51.998;7.614;2023-02-25T00:22:47;4.00;90.90
23671;DHT22;12012;51.998;7.614;2023-02-25T00:25:12;4.00;90.90
23671;DHT22;12012;51.998;7.614;2023-02-25T00:27:41;4.00;91.00
23671;DHT22;12012;51.998;7.614;2023-02-25T00:30:07;4.00;90.80
23671;DHT22;12012;51.998;7.614;2023-02-25T00:32:35;4.00;90.90
23671;DHT22;12012;51.998;7.614;2023-02-25T00:35:01;4.00;90.80
23671;DHT22;12012;51.998;7.614;2023-02-25T00:37:27;4.00;90.20
23671;DHT22;12012;51.998;7.614;2023-02-25T00:39:52;4.00;90.10
23671;DHT22;12012;51.998;7.614;2023-02-25T00:42:18;4.00;90.00
23671;DHT22;12012;51.998;7.614;2023-02-25T00:44:48;4.00;89.20
23671;DHT22;12012;51.998;7.614;2023-02-25T00:47:16;4.00;89.30
23671;DHT22;12012;51.998;7.614;2023-02-25T00:49:44;4.10;89.50
23671;DHT22;12012;51.998;7.614;2023-02-25T00:52:11;4.10;89.70
23671;DHT22;12012;51.998;7.614;2023-02-25T00:54:36;4.10;88.90
23671;DHT22;12012;51.998;7.614;2023-02-25T00:57:04;4.00;89.00
23671;DHT22;12012;51.998;7.614;2023-02-25T00:59:29;4.10;89.40
23671;DHT22;12012;51.998;7.614;2023-02-25T01:01:55;4.10;89.60
23671;DHT22;12012;51.998;7.614;2023-02-25T01:04:21;4.10;89.60
23671;DHT22;12012;51.998;7.614;2023-02-25T01:06:46;4.10;89.70
23671;DHT22;12012;51.998;7.614;2023-02-25T01:09:12;4.00;89.50
23671;DHT22;12012;51.998;7.614;2023-02-25T01:11:44;4.10;90.10
23671;DHT22;12012;51.998;7.614;2023-02-25T01:14:22;4.10;90.40
23671;DHT22;12012;51.998;7.614;2023-02-25T01:16:49;4.10;91.00
23671;DHT22;12012;51.998;7.614;2023-02-25T01:19:18;4.00;90.90
23671;DHT22;12012;51.998;7.614;2023-02-25T01:21:45;4.00;91.30
23671;DHT22;12012;51.998;7.614;2023-02-25T01:24:20;3.90;92.40
23671;DHT22;12012;51.998;7.614;2023-02-25T01:26:47;3.90;93.30
23671;DHT22;12012;51.998;7.614;2023-02-25T01:29:16;3.80;94.20
23671;DHT22;12012;51.998;7.614;2023-02-25T01:31:43;3.80;95.10
23671;DHT22;12012;51.998;7.614;2023-02-25T01:34:13;3.80;95.40
23671;DHT22;12012;51.998;7.614;2023-02-25T01:36:39;3.70;96.20
23671;DHT22;12012;51.998;7.614;2023-02-25T01:39:04;3.70;96.50
23671;DHT22;12012;51.998;7.614;2023-02-25T01:41:33;3.70;97.20
23671;DHT22;12012;51.998;7.614;2023-02-25T01:44:07;3.70;97.50
23671;DHT22;12012;51.998;7.614;2023-02-25T01:46:34;3.70;98.00
23671;DHT22;12012;51.998;7.614;2023-02-25T01:49:01;3.70;98.30
23671;DHT22;12012;51.998;7.614;2023-02-25T01:51:28;3.70;98.60
23671;DHT22;12012;51.998;7.614;2023-02-25T01:53:56;3.70;98.60
23671;DHT22;12012;51.998;7.614;2023-02-25T01:56:25;3.70;99.20
23671;DHT22;12012;51.998;7.614;2023-02-25T01:58:51;3.70;99.30
23671;DHT22;12012;51.998;7.614;2023-02-25T02:01:20;3.70;99.40
23671;DHT22;12012;51.998;7.614;2023-02-25T02:03:47;3.70;99.60
23671;DHT22;12012;51.998;7.614;2023-02-25T02:06:28;3.70;99.90
23671;DHT22;12012;51.998;7.614;2023-02-25T02:08:55;3.70;99.90
23671;DHT22;12012;51.998;7.614;2023-02-25T02:11:21;3.70;99.90
23671;DHT22;12012;51.998;7.614;2023-02-25T02:13:51;3.70;99.90
23671;DHT22;12012;51.998;7.614;2023-02-25T02:16:25;3.70;99.90
23671;DHT22;12012;51.998;7.614;2023-02-25T02:18:57;3.80;99.90
23671;DHT22;12012;51.998;7.614;2023-02-25T02:24:22;3.80;99.90
23671;DHT22;12012;51.998;7.614;2023-02-25T02:27:03;3.80;99.90
23671;DHT22;12012;51.998;7.614;2023-02-25T02:29:47;3.70;99.90
23671;DHT22;12012;51.998;7.614;2023-02-25T02:35:37;3.70;99.90
23671;DHT22;12012;51.998;7.614;2023-02-25T02:43:37;3.60;99.90
23671;DHT22;12012;51.998;7.614;2023-02-25T02:46:22;3.60;99.90
23671;DHT22;12012;51.998;7.614;2023-02-25T02:49:31;3.60;99.90
23671;DHT22;12012;51.998;7.614;2023-02-25T02:51:40;3.50;99.90
23671;DHT22;12012;51.998;7.614;2023-02-25T02:54:09;3.50;99.90
23671;DHT22;12012;51.998;7.614;2023-02-25T02:56:37;3.50;99.90
23671;DHT22;12012;51.998;7.614;2023-02-25T02:59:08;3.40;99.90
23671;DHT22;12012;51.998;7.614;2023-02-25T03:01:40;3.40;99.90
23671;DHT22;12012;51.998;7.614;2023-02-25T03:04:09;3.40;99.90
23671;DHT22;12012;51.998;7.614;2023-02-25T03:06:40;3.50;99.90
23671;DHT22;12012;51.998;7.614;2023-02-25T03:09:20;3.40;99.90
23671;DHT22;12012;51.998;7.614;2023-02-25T03:11:47;3.40;99.90
23671;DHT22;12012;51.998;7.614;2023-02-25T03:14:13;3.40;99.90
23671;DHT22;12012;51.998;7.614;2023-02-25T03:16:43;3.50;99.90
23671;DHT22;12012;51.998;7.614;2023-02-25T03:19:14;3.50;99.90
23671;DHT22;12012;51.998;7.614;2023-02-25T03:21:47;3.50;99.90
23671;DHT22;12012;51.998;7.614;2023-02-25T03:24:18;3.50;99.90
23671;DHT22;12012;51.998;7.614;2023-02-25T03:26:49;3.50;99.90
23671;DHT22;12012;51.998;7.614;2023-02-25T03:29:17;3.50;99.90
23671;DHT22;12012;51.998;7.614;2023-02-25T03:34:26;3.50;99.90
23671;DHT22;12012;51.998;7.614;2023-02-25T03:36:57;3.50;99.90
23671;DHT22;12012;51.998;7.614;2023-02-25T03:39:30;3.50;99.90
23671;DHT22;12012;51.998;7.614;2023-02-25T03:42:00;3.50;99.90
23671;DHT22;12012;51.998;7.614;2023-02-25T03:44:33;3.50;99.90
23671;DHT22;12012;51.998;7.614;2023-02-25T03:47:01;3.50;99.90
23671;DHT22;12012;51.998;7.614;2023-02-25T03:49:45;3.50;99.90
23671;DHT22;12012;51.998;7.614;2023-02-25T03:52:16;3.60;99.90
23671;DHT22;12012;51.998;7.614;2023-02-25T03:54:49;3.50;99.90
23671;DHT22;12012;51.998;7.614;2023-02-25T03:57:15;3.50;99.90
23671;DHT22;12012;51.998;7.614;2023-02-25T03:59:41;3.50;99.90
23671;DHT22;12012;51.998;7.614;2023-02-25T04:02:07;3.50;99.90
23671;DHT22;12012;51.998;7.614;2023-02-25T04:04:33;3.50;99.90
23671;DHT22;12012;51.998;7.614;2023-02-25T04:06:58;3.40;99.90
23671;DHT22;12012;51.998;7.614;2023-02-25T04:09:24;3.40;99.90
23671;DHT22;12012;51.998;7.614;2023-02-25T04:11:49;3.40;99.90
23671;DHT22;12012;51.998;7.614;2023-02-25T04:14:15;3.40;99.90
23671;DHT22;12012;51.998;7.614;2023-02-25T04:16:42;3.30;99.90
23671;DHT22;12012;51.998;7.614;2023-02-25T04:19:08;3.30;99.90
23671;DHT22;12012;51.998;7.614;2023-02-25T04:21:35;3.30;99.90
23671;DHT22;12012;51.998;7.614;2023-02-25T04:24:02;3.30;99.90
23671;DHT22;12012;51.998;7.614;2023-02-25T04:26:30;3.20;99.90
23671;DHT22;12012;51.998;7.614;2023-02-25T04:28:55;3.20;99.90
23671;DHT22;12012;51.998;7.614;2023-02-25T04:31:21;3.20;99.90
23671;DHT22;12012;51.998;7.614;2023-02-25T04:33:47;3.30;99.90
23671;DHT22;12012;51.998;7.614;2023-02-25T04:36:25;3.20;99.90
23671;DHT22;12012;51.998;7.614;2023-02-25T04:38:51;3.30;99.90
23671;DHT22;12012;51.998;7.614;2023-02-25T04:41:17;3.30;99.90
23671;DHT22;12012;51.998;7.614;2023-02-25T04:43:42;3.30;99.90
23671;DHT22;12012;51.998;7.614;2023-02-25T04:46:10;3.30;99.90
23671;DHT22;12012;51.998;7.614;2023-02-25T04:48:36;3.30;99.90
23671;DHT22;12012;51.998;7.614;2023-02-25T04:51:04;3.30;99.90
23671;DHT22;12012;51.998;7.614;2023-02-25T04:53:30;3.30;99.90
23671;DHT22;12012;51.998;7.614;2023-02-25T04:55:56;3.30;99.90
23671;DHT22;12012;51.998;7.614;2023-02-25T04:58:21;3.30;99.90
23671;DHT22;12012;51.998;7.614;2023-02-25T05:00:47;3.40;99.90
23671;DHT22;12012;51.998;7.614;2023-02-25T05:03:13;3.40;99.90
23671;DHT22;12012;51.998;7.614;2023-02-25T05:05:38;3.40;99.90
23671;DHT22;12012;51.998;7.614;2023-02-25T05:08:04;3.40;99.90
23671;DHT22;12012;51.998;7.614;2023-02-25T05:10:30;3.40;99.90
23671;DHT22;12012;51.998;7.614;2023-02-25T05:12:55;3.40;99.90
23671;DHT22;12012;51.998;7.614;2023-02-25T05:15:21;3.50;99.90
23671;DHT22;12012;51.998;7.614;2023-02-25T05:17:46;3.50;99.90
23671;DHT22;12012;51.998;7.614;2023-02-25T05:20:13;3.50;99.90
23671;DHT22;12012;51.998;7.614;2023-02-25T05:22:40;3.50;99.90
23671;DHT22;12012;51.998;7.614;2023-02-25T05:25:06;3.50;99.90
23671;DHT22;12012;51.998;7.614;2023-02-25T05:27:33;3.50;99.90
23671;DHT22;12012;51.998;7.614;2023-02-25T05:29:58;3.50;99.90
23671;DHT22;12012;51.998;7.614;2023-02-25T05:32:24;3.50;99.90
23671;DHT22;12012;51.998;7.614;2023-02-25T05:34:49;3.50;99.90
23671;DHT22;12012;51.998;7.614;2023-02-25T05:37:15;3.60;99.90
23671;DHT22;12012;51.998;7.614;2023-02-25T05:39:41;3.60;99.90
23671;DHT22;12012;51.998;7.614;2023-02-25T05:42:06;3.60;99.90
23671;DHT22;12012;51.998;7.614;2023-02-25T05:44:32;3.60;99.90
23671;DHT22;12012;51.998;7.614;2023-02-25T05:46:57;3.60;99.90
23671;DHT22;12012;51.998;7.614;2023-02-25T05:49:23;3.60;99.90
23671;DHT22;12012;51.998;7.614;2023-02-25T05:51:49;3.60;99.90
23671;DHT22;12012;51.998;7.614;2023-02-25T05:54:14;3.60;99.90
23671;DHT22;12012;51.998;7.614;2023-02-25T05:56:40;3.60;99.90
23671;DHT22;12012;51.998;7.614;2023-02-25T05:59:06;3.60;99.90
23671;DHT22;12012;51.998;7.614;2023-02-25T06:01:31;3.60;99.90
23671;DHT22;12012;51.998;7.614;2023-02-25T06:03:57;3.60;99.90
23671;DHT22;12012;51.998;7.614;2023-02-25T06:06:25;3.60;99.90
23671;DHT22;12012;51.998;7.614;2023-02-25T06:08:52;3.60;99.90
23671;DHT22;12012;51.998;7.614;2023-02-25T06:11:20;3.60;99.90
23671;DHT22;12012;51.998;7.614;2023-02-25T06:13:49;3.60;99.90
23671;DHT22;12012;51.998;7.614;2023-02-25T06:16:15;3.60;99.90
23671;DHT22;12012;51.998;7.614;2023-02-25T06:18:40;3.60;99.90
23671;DHT22;12012;51.998;7.614;2023-02-25T06:21:08;3.60;99.90
23671;DHT22;12012;51.998;7.614;2023-02-25T06:23:36;3.60;99.90
23671;DHT22;12012;51.998;7.614;2023-02-25T06:26:02;3.60;99.90
23671;DHT22;12012;51.998;7.614;2023-02-25T06:28:29;3.60;99.90
23671;DHT22;12012;51.998;7.614;2023-02-25T06:30:54;3.60;99.90
23671;DHT22;12012;51.998;7.614;2023-02-25T06:33:21;3.60;99.90
23671;DHT22;12012;51.998;7.614;2023-02-25T06:35:51;3.60;99.90
23671;DHT22;12012;51.998;7.614;2023-02-25T06:38:17;3.60;99.90
23671;DHT22;12012;51.998;7.614;2023-02-25T06:40:42;3.60;99.90
23671;DHT22;12012;51.998;7.614;2023-02-25T06:43:08;3.60;99.90
23671;DHT22;12012;51.998;7.614;2023-02-25T06:45:35;3.60;99.90
23671;DHT22;12012;51.998;7.614;2023-02-25T06:48:00;3.50;99.90
23671;DHT22;12012;51.998;7.614;2023-02-25T06:50:26;3.50;99.90
23671;DHT22;12012;51.998;7.614;2023-02-25T06:52:52;3.40;99.90
23671;DHT22;12012;51.998;7.614;2023-02-25T06:55:18;3.40;99.90
23671;DHT22;12012;51.998;7.614;2023-02-25T06:57:43;3.30;99.90
23671;DHT22;12012;51.998;7.614;2023-02-25T07:00:09;3.20;99.90
23671;DHT22;12012;51.998;7.614;2023-02-25T07:02:35;3.10;99.90
23671;DHT22;12012;51.998;7.614;2023-02-25T07:05:01;3.00;99.90
23671;DHT22;12012;51.998;7.614;2023-02-25T07:07:27;3.00;99.90
23671;DHT22;12012;51.998;7.614;2023-02-25T07:09:53;3.00;99.90
23671;DHT22;12012;51.998;7.614;2023-02-25T07:12:18;2.90;99.90
23671;DHT22;12012;51.998;7.614;2023-02-25T07:14:44;2.90;99.90
23671;DHT22;12012;51.998;7.614;2023-02-25T07:17:10;2.90;99.90
23671;DHT22;12012;51.998;7.614;2023-02-25T07:19:35;2.90;99.90
23671;DHT22;12012;51.998;7.614;2023-02-25T07:22:01;2.90;99.90
23671;DHT22;12012;51.998;7.614;2023-02-25T07:24:26;2.90;99.90
23671;DHT22;12012;51.998;7.614;2023-02-25T07:26:52;2.90;99.90
23671;DHT22;12012;51.998;7.614;2023-02-25T07:29:20;2.90;99.90
23671;DHT22;12012;51.998;7.614;2023-02-25T07:31:45;3.00;99.90
23671;DHT22;12012;51.998;7.614;2023-02-25T07:34:12;3.00;99.90
23671;DHT22;12012;51.998;7.614;2023-02-25T07:36:39;3.00;99.90
23671;DHT22;12012;51.998;7.614;2023-02-25T07:39:06;3.00;99.90
23671;DHT22;12012;51.998;7.614;2023-02-25T07:41:34;3.00;99.90
23671;DHT22;12012;51.998;7.614;2023-02-25T07:43:59;3.10;99.90
23671;DHT22;12012;51.998;7.614;2023-02-25T07:46:25;3.10;99.90
23671;DHT22;12012;51.998;7.614;2023-02-25T07:48:51;3.10;99.90
23671;DHT22;12012;51.998;7.614;2023-02-25T07:51:21;3.20;99.90
23671;DHT22;12012;51.998;7.614;2023-02-25T07:53:49;3.20;99.90
23671;DHT22;12012;51.998;7.614;2023-02-25T07:56:17;3.30;99.90
23671;DHT22;12012;51.998;7.614;2023-02-25T07:58:43;3.30;99.90
23671;DHT22;12012;51.998;7.614;2023-02-25T08:03:43;3.40;99.90
23671;DHT22;12012;51.998;7.614;2023-02-25T08:06:08;3.50;99.90
23671;DHT22;12012;51.998;7.614;2023-02-25T08:08:35;3.50;99.90
23671;DHT22;12012;51.998;7.614;2023-02-25T08:11:08;3.60;99.90
23671;DHT22;12012;51.998;7.614;2023-02-25T08:13:34;3.70;99.90
23671;DHT22;12012;51.998;7.614;2023-02-25T08:16:06;3.70;99.90
23671;DHT22;12012;51.998;7.614;2023-02-25T08:18:32;3.80;99.90
23671;DHT22;12012;51.998;7.614;2023-02-25T08:20:57;3.90;99.90
23671;DHT22;12012;51.998;7.614;2023-02-25T08:23:24;4.00;99.90
23671;DHT22;12012;51.998;7.614;2023-02-25T08:25:54;4.10;99.90
23671;DHT22;12012;51.998;7.614;2023-02-25T08:28:25;4.20;99.90
23671;DHT22;12012;51.998;7.614;2023-02-25T08:30:51;4.30;99.90
23671;DHT22;12012;51.998;7.614;2023-02-25T08:33:17;4.40;99.90
23671;DHT22;12012;51.998;7.614;2023-02-25T08:35:43;4.50;99.90
23671;DHT22;12012;51.998;7.614;2023-02-25T08:38:09;4.60;99.90
23671;DHT22;12012;51.998;7.614;2023-02-25T08:40:40;4.80;99.90
23671;DHT22;12012;51.998;7.614;2023-02-25T08:43:07;5.10;99.90
23671;DHT22;12012;51.998;7.614;2023-02-25T08:45:33;5.30;99.90
23671;DHT22;12012;51.998;7.614;2023-02-25T08:47:58;5.40;99.90
23671;DHT22;12012;51.998;7.614;2023-02-25T08:50:25;5.50;98.50
23671;DHT22;12012;51.998;7.614;2023-02-25T08:52:51;5.60;99.00
23671;DHT22;12012;51.998;7.614;2023-02-25T08:55:17;5.60;98.50
23671;DHT22;12012;51.998;7.614;2023-02-25T08:57:43;5.70;95.50
23671;DHT22;12012;51.998;7.614;2023-02-25T09:00:11;5.80;94.60
23671;DHT22;12012;51.998;7.614;2023-02-25T09:02:40;6.00;93.50
23671;DHT22;12012;51.998;7.614;2023-02-25T09:05:06;6.30;91.30
23671;DHT22;12012;51.998;7.614;2023-02-25T09:07:32;6.50;90.60
23671;DHT22;12012;51.998;7.614;2023-02-25T09:09:57;6.70;82.90
23671;DHT22;12012;51.998;7.614;2023-02-25T09:12:23;6.80;80.80
23671;DHT22;12012;51.998;7.614;2023-02-25T09:14:48;6.90;63.30
23671;DHT22;12012;51.998;7.614;2023-02-25T09:17:15;7.10;53.70
23671;DHT22;12012;51.998;7.614;2023-02-25T09:19:41;7.00;50.00
23671;DHT22;12012;51.998;7.614;2023-02-25T09:22:07;6.90;38.20
23671;DHT22;12012;51.998;7.614;2023-02-25T09:24:34;6.80;35.60
23671;DHT22;12012;51.998;7.614;2023-02-25T09:27:02;6.60;38.70
23671;DHT22;12012;51.998;7.614;2023-02-25T09:29:36;6.40;24.80
23671;DHT22;12012;51.998;7.614;2023-02-25T09:32:03;6.20;26.10
23671;DHT22;12012;51.998;7.614;2023-02-25T09:34:29;6.00;30.90
23671;DHT22;12012;51.998;7.614;2023-02-25T09:36:54;5.80;43.30
23671;DHT22;12012;51.998;7.614;2023-02-25T09:39:21;5.70;49.30
23671;DHT22;12012;51.998;7.614;2023-02-25T09:44:43;5.70;40.20
23671;DHT22;12012;51.998;7.614;2023-02-25T09:50:27;5.60;23.90
23671;DHT22;12012;51.998;7.614;2023-02-25T09:53:04;5.60;29.00
23671;DHT22;12012;51.998;7.614;2023-02-25T09:55:37;5.70;29.80
23671;DHT22;12012;51.998;7.614;2023-02-25T09:58:26;6.20;21.70
23671;DHT22;12012;51.998;7.614;2023-02-25T10:01:12;6.40;20.60
23671;DHT22;12012;51.998;7.614;2023-02-25T10:06:19;6.20;1.90
23671;DHT22;12012;51.998;7.614;2023-02-25T10:11:42;6.00;1.00
23671;DHT22;12012;51.998;7.614;2023-02-25T10:14:20;5.90;1.00
23671;DHT22;12012;51.998;7.614;2023-02-25T10:22:38;5.70;99.90
23671;DHT22;12012;51.998;7.614;2023-02-25T10:25:13;5.90;99.90
23671;DHT22;12012;51.998;7.614;2023-02-25T10:28:16;6.30;32.40
23671;DHT22;12012;51.998;7.614;2023-02-25T10:33:21;7.90;1.00
23671;DHT22;12012;51.998;7.614;2023-02-25T10:35:56;8.40;99.90
23671;DHT22;12012;51.998;7.614;2023-02-25T10:38:24;9.00;99.90
23671;DHT22;12012;51.998;7.614;2023-02-25T10:40:53;9.50;99.90
23671;DHT22;12012;51.998;7.614;2023-02-25T10:43:22;9.90;99.90
23671;DHT22;12012;51.998;7.614;2023-02-25T10:46:14;10.00;99.90
23671;DHT22;12012;51.998;7.614;2023-02-25T10:48:48;10.10;99.90
23671;DHT22;12012;51.998;7.614;2023-02-25T10:51:16;9.90;99.90
23671;DHT22;12012;51.998;7.614;2023-02-25T10:56:24;9.40;99.90
23671;DHT22;12012;51.998;7.614;2023-02-25T10:59:06;9.20;99.90
23671;DHT22;12012;51.998;7.614;2023-02-25T11:01:40;9.00;99.90
23671;DHT22;12012;51.998;7.614;2023-02-25T11:04:12;8.80;99.90
23671;DHT22;12012;51.998;7.614;2023-02-25T11:06:39;8.80;99.90
23671;DHT22;12012;51.998;7.614;2023-02-25T11:09:26;9.20;99.90
23671;DHT22;12012;51.998;7.614;2023-02-25T11:12:08;10.10;99.90
23671;DHT22;12012;51.998;7.614;2023-02-25T11:14:35;10.70;99.90
23671;DHT22;12012;51.998;7.614;2023-02-25T11:19:44;11.50;99.90
23671;DHT22;12012;51.998;7.614;2023-02-25T11:22:21;12.10;99.90
23671;DHT22;12012;51.998;7.614;2023-02-25T11:25:17;12.30;99.20
23671;DHT22;12012;51.998;7.614;2023-02-25T11:27:50;12.60;93.40
23671;DHT22;12012;51.998;7.614;2023-02-25T11:30:19;13.40;87.30
23671;DHT22;12012;51.998;7.614;2023-02-25T11:32:53;13.30;75.10
23671;DHT22;12012;51.998;7.614;2023-02-25T11:35:35;14.30;73.00
23671;DHT22;12012;51.998;7.614;2023-02-25T11:38:25;15.50;68.40
23671;DHT22;12012;51.998;7.614;2023-02-25T11:40:52;16.00;59.80
23671;DHT22;12012;51.998;7.614;2023-02-25T11:43:20;16.30;53.60
23671;DHT22;12012;51.998;7.614;2023-02-25T11:45:58;16.50;45.80
23671;DHT22;12012;51.998;7.614;2023-02-25T11:48:35;16.00;38.50
23671;DHT22;12012;51.998;7.614;2023-02-25T11:56:26;19.10;33.20
23671;DHT22;12012;51.998;7.614;2023-02-25T12:24:36;23.80;1.00
23671;DHT22;12012;51.998;7.614;2023-02-25T12:27:30;21.30;1.00
23671;DHT22;12012;51.998;7.614;2023-02-25T13:04:03;22.50;1.00
23671;DHT22;12012;51.998;7.614;2023-02-25T13:11:56;20.30;1.00
23671;DHT22;12012;51.998;7.614;2023-02-25T13:25:30;17.70;1.00
23671;DHT22;12012;51.998;7.614;2023-02-25T13:28:40;17.50;1.00
23671;DHT22;12012;51.998;7.614;2023-02-25T13:40:15;18.30;1.00
23671;DHT22;12012;51.998;7.614;2023-02-25T13:43:02;18.30;1.00
23671;DHT22;12012;51.998;7.614;2023-02-25T13:48:40;18.90;1.00
23671;DHT22;12012;51.998;7.614;2023-02-25T14:19:12;23.70;1.00
23671;DHT22;12012;51.998;7.614;2023-02-25T14:24:44;23.20;1.00
23671;DHT22;12012;51.998;7.614;2023-02-25T14:27:39;22.80;1.00
23671;DHT22;12012;51.998;7.614;2023-02-25T14:30:40;22.70;1.00
23671;DHT22;12012;51.998;7.614;2023-02-25T14:43:51;22.70;1.00
23671;DHT22;12012;51.998;7.614;2023-02-25T14:46:32;22.40;1.00
23671;DHT22;12012;51.998;7.614;2023-02-25T15:10:47;14.80;1.00
23671;DHT22;12012;51.998;7.614;2023-02-25T15:13:41;13.90;1.00
23671;DHT22;12012;51.998;7.614;2023-02-25T15:19:23;12.80;1.00
23671;DHT22;12012;51.998;7.614;2023-02-25T15:24:39;11.80;1.00
23671;DHT22;12012;51.998;7.614;2023-02-25T15:30:07;11.30;1.00
23671;DHT22;12012;51.998;7.614;2023-02-25T15:35:49;10.70;1.00
23671;DHT22;12012;51.998;7.614;2023-02-25T15:38:12;10.40;1.00
23671;DHT22;12012;51.998;7.614;2023-02-25T15:45:41;9.60;1.00
23671;DHT22;12012;51.998;7.614;2023-02-25T16:08:40;8.10;1.00
23671;DHT22;12012;51.998;7.614;2023-02-25T16:11:18;7.90;1.00
23671;DHT22;12012;51.998;7.614;2023-02-25T16:13:45;7.90;1.00
23671;DHT22;12012;51.998;7.614;2023-02-25T16:16:12;7.80;1.00
23671;DHT22;12012;51.998;7.614;2023-02-25T16:18:43;7.70;1.00
23671;DHT22;12012;51.998;7.614;2023-02-25T16:21:21;7.50;1.00
23671;DHT22;12012;51.998;7.614;2023-02-25T16:23:49;7.40;1.00
23671;DHT22;12012;51.998;7.614;2023-02-25T16:26:53;7.20;1.00
23671;DHT22;12012;51.998;7.614;2023-02-25T16:32:15;6.90;1.00
23671;DHT22;12012;51.998;7.614;2023-02-25T16:40:23;6.30;1.00
23671;DHT22;12012;51.998;7.614;2023-02-25T16:42:50;6.10;1.00
23671;DHT22;12012;51.998;7.614;2023-02-25T16:45:26;6.00;1.00
23671;DHT22;12012;51.998;7.614;2023-02-25T16:47:59;5.80;1.00
23671;DHT22;12012;51.998;7.614;2023-02-25T16:50:27;5.70;1.00
23671;DHT22;12012;51.998;7.614;2023-02-25T16:52:55;5.50;1.00
23671;DHT22;12012;51.998;7.614;2023-02-25T16:55:38;5.40;1.00
23671;DHT22;12012;51.998;7.614;2023-02-25T17:01:00;5.20;1.00
23671;DHT22;12012;51.998;7.614;2023-02-25T17:03:40;5.00;1.00
23671;DHT22;12012;51.998;7.614;2023-02-25T17:06:14;4.90;1.00
23671;DHT22;12012;51.998;7.614;2023-02-25T17:08:45;4.80;1.00
23671;DHT22;12012;51.998;7.614;2023-02-25T17:11:11;4.70;1.00
23671;DHT22;12012;51.998;7.614;2023-02-25T17:13:41;4.60;1.00
23671;DHT22;12012;51.998;7.614;2023-02-25T17:16:16;4.60;1.00
23671;DHT22;12012;51.998;7.614;2023-02-25T17:18:48;4.50;1.00
23671;DHT22;12012;51.998;7.614;2023-02-25T17:21:25;4.40;1.00
23671;DHT22;12012;51.998;7.614;2023-02-25T17:23:52;4.30;1.00
23671;DHT22;12012;51.998;7.614;2023-02-25T17:26:18;4.20;1.00
23671;DHT22;12012;51.998;7.614;2023-02-25T17:28:48;4.10;1.00
23671;DHT22;12012;51.998;7.614;2023-02-25T17:31:17;4.00;1.00
23671;DHT22;12012;51.998;7.614;2023-02-25T17:33:50;4.00;1.00
23671;DHT22;12012;51.998;7.614;2023-02-25T17:36:19;3.90;1.00
23671;DHT22;12012;51.998;7.614;2023-02-25T17:38:50;3.90;1.00
23671;DHT22;12012;51.998;7.614;2023-02-25T17:41:19;3.80;1.00
23671;DHT22;12012;51.998;7.614;2023-02-25T17:43:45;3.70;1.00
23671;DHT22;12012;51.998;7.614;2023-02-25T17:46:21;3.70;1.00
23671;DHT22;12012;51.998;7.614;2023-02-25T17:48:57;3.70;1.00
23671;DHT22;12012;51.998;7.614;2023-02-25T17:51:41;3.60;1.00
23671;DHT22;12012;51.998;7.614;2023-02-25T17:54:12;3.50;1.00
23671;DHT22;12012;51.998;7.614;2023-02-25T17:56:38;3.50;1.00
23671;DHT22;12012;51.998;7.614;2023-02-25T18:01:57;3.40;1.00
23671;DHT22;12012;51.998;7.614;2023-02-25T18:07:20;3.30;1.00
23671;DHT22;12012;51.998;7.614;2023-02-25T18:09:46;3.30;1.00
23671;DHT22;12012;51.998;7.614;2023-02-25T18:12:33;3.20;1.00
23671;DHT22;12012;51.998;7.614;2023-02-25T18:15:13;3.20;1.00
23671;DHT22;12012;51.998;7.614;2023-02-25T18:21:08;3.10;1.00
23671;DHT22;12012;51.998;7.614;2023-02-25T18:23:35;3.10;1.00
23671;DHT22;12012;51.998;7.614;2023-02-25T18:28:38;3.00;1.00
23671;DHT22;12012;51.998;7.614;2023-02-25T18:31:04;2.90;1.00
23671;DHT22;12012;51.998;7.614;2023-02-25T18:33:30;2.90;1.00
23671;DHT22;12012;51.998;7.614;2023-02-25T18:35:55;2.90;1.00
23671;DHT22;12012;51.998;7.614;2023-02-25T18:38:23;2.80;1.00
23671;DHT22;12012;51.998;7.614;2023-02-25T18:40:51;2.80;1.00
23671;DHT22;12012;51.998;7.614;2023-02-25T18:43:19;2.70;1.00
23671;DHT22;12012;51.998;7.614;2023-02-25T18:45:45;2.70;1.00
23671;DHT22;12012;51.998;7.614;2023-02-25T18:48:11;2.70;1.00
23671;DHT22;12012;51.998;7.614;2023-02-25T18:50:38;2.60;1.00
23671;DHT22;12012;51.998;7.614;2023-02-25T18:53:20;2.60;1.00
23671;DHT22;12012;51.998;7.614;2023-02-25T18:55:47;2.60;1.00
23671;DHT22;12012;51.998;7.614;2023-02-25T18:58:15;2.60;1.00
23671;DHT22;12012;51.998;7.614;2023-02-25T19:00:42;2.50;1.00
23671;DHT22;12012;51.998;7.614;2023-02-25T19:03:15;2.50;1.00
23671;DHT22;12012;51.998;7.614;2023-02-25T19:05:41;2.50;1.00
23671;DHT22;12012;51.998;7.614;2023-02-25T19:08:14;2.40;1.00
23671;DHT22;12012;51.998;7.614;2023-02-25T19:10:41;2.40;1.00
23671;DHT22;12012;51.998;7.614;2023-02-25T19:13:17;2.40;1.00
23671;DHT22;12012;51.998;7.614;2023-02-25T19:15:43;2.40;1.00
23671;DHT22;12012;51.998;7.614;2023-02-25T19:18:13;2.40;1.00
23671;DHT22;12012;51.998;7.614;2023-02-25T19:20:40;2.30;1.00
23671;DHT22;12012;51.998;7.614;2023-02-25T19:23:09;2.30;1.00
23671;DHT22;12012;51.998;7.614;2023-02-25T19:25:35;2.30;1.00
23671;DHT22;12012;51.998;7.614;2023-02-25T19:28:02;2.30;1.00
23671;DHT22;12012;51.998;7.614;2023-02-25T19:30:30;2.20;1.00
23671;DHT22;12012;51.998;7.614;2023-02-25T19:32:57;2.20;1.00
23671;DHT22;12012;51.998;7.614;2023-02-25T19:35:27;2.20;1.00
23671;DHT22;12012;51.998;7.614;2023-02-25T19:37:52;2.20;1.00
23671;DHT22;12012;51.998;7.614;2023-02-25T19:40:18;2.20;1.00
23671;DHT22;12012;51.998;7.614;2023-02-25T19:42:44;2.10;1.00
23671;DHT22;12012;51.998;7.614;2023-02-25T19:45:13;2.10;1.00
23671;DHT22;12012;51.998;7.614;2023-02-25T19:47:38;2.10;1.00
23671;DHT22;12012;51.998;7.614;2023-02-25T19:50:05;2.10;3.40
23671;DHT22;12012;51.998;7.614;2023-02-25T19:52:31;2.10;8.60
23671;DHT22;12012;51.998;7.614;2023-02-25T19:54:58;2.10;13.90
23671;DHT22;12012;51.998;7.614;2023-02-25T19:57:23;2.20;18.80
23671;DHT22;12012;51.998;7.614;2023-02-25T19:59:49;2.20;23.20
23671;DHT22;12012;51.998;7.614;2023-02-25T20:02:15;2.30;31.90
23671;DHT22;12012;51.998;7.614;2023-02-25T20:04:40;2.30;37.90
23671;DHT22;12012;51.998;7.614;2023-02-25T20:07:06;2.30;45.60
23671;DHT22;12012;51.998;7.614;2023-02-25T20:09:32;2.40;53.50
23671;DHT22;12012;51.998;7.614;2023-02-25T20:11:58;2.40;61.00
23671;DHT22;12012;51.998;7.614;2023-02-25T20:14:24;2.40;69.30
23671;DHT22;12012;51.998;7.614;2023-02-25T20:16:52;2.40;79.50
23671;DHT22;12012;51.998;7.614;2023-02-25T20:19:19;2.40;91.80
23671;DHT22;12012;51.998;7.614;2023-02-25T20:21:44;2.40;97.10
23671;DHT22;12012;51.998;7.614;2023-02-25T20:24:10;2.40;99.90